Погода Шанихана 2 недели

Смоленская область, Россия

13 - 26 июля
  • 13июля
    Сегодня
    +17°
    +28°
    Небольшая облачность
    ВремяПогодаТемператураВлажностьДавлениеВетер, м/сВероятность осадков
    00:00Практически безоблачно+17°C94 %743 мм1.5 м/с41 %
    03:00Небольшая облачность и лёгкий дождик+16°C98 %744 мм0.9 м/с16 %
    06:00Облачно с прояснениями+18°C98 %743 мм0.8 м/с2 %
    09:00Пасмурно, сплошная облачность+21°C88 %744 мм1.9 м/с21 %
    12:00Облачно с прояснениями+25°C71 %743 мм1.0 м/с38 %
    15:00Небольшая облачность+27°C58 %743 мм1.6 м/с18 %
    18:00Практически безоблачно+27°C57 %742 мм1.2 м/с2 %
    21:00Облачно с прояснениями+22°C77 %742 мм1.7 м/с2 %
  • 14июля
    Воскресенье
    +15°
    +29°
    Практически безоблачно
    ВремяПогодаТемператураВлажностьДавлениеВетер, м/сВероятность осадков
    00:00Облачно с прояснениями+19°C81 %741 мм2.0 м/с10 %
    03:00Небольшая облачность+19°C86 %741 мм1.9 м/с14 %
    06:00Облачно с прояснениями+19°C91 %741 мм2.7 м/с17 %
    09:00Ясно и безоблачно+24°C81 %741 мм1.3 м/с25 %
    12:00Облачно с прояснениями+28°C70 %742 мм2.9 м/с29 %
    15:00Практически безоблачно+29°C63 %742 мм3.8 м/с45 %
    18:00Практически безоблачно+28°C58 %742 мм3.1 м/с36 %
    21:00Ясно и безоблачно+23°C79 %742 мм2.0 м/с16 %
  • 15июля
    Понедельник
    +16°
    +28°
    Облачно с прояснениями
    ВремяПогодаТемператураВлажностьДавлениеВетер, м/сВероятность осадков
    00:00Ясно и безоблачно+18°C82 %743 мм2.7 м/с4 %
    03:00Ясно и безоблачно+15°C93 %743 мм1.8 м/с2 %
    06:00Практически безоблачно+17°C92 %743 мм2.0 м/с3 %
    09:00Ясно и безоблачно+23°C79 %744 мм0.8 м/с9 %
    12:00Облачно с прояснениями+26°C62 %744 мм0.4 м/с26 %
    15:00Облачно с прояснениями+27°C53 %744 мм0.4 м/с23 %
    18:00Облачно с прояснениями+27°C51 %743 мм0.1 м/с32 %
    21:00Облачно с прояснениями+23°C74 %743 мм1.9 м/с20 %
  • 16июля
    Вторник
    +14°
    +27°
    Практически безоблачно
    ВремяПогодаТемператураВлажностьДавлениеВетер, м/сВероятность осадков
    00:00Облачно с прояснениями+20°C75 %743 мм0.6 м/с14 %
    03:00Ясно и безоблачно+17°C88 %743 мм1.2 м/с20 %
    06:00Практически безоблачно+18°C86 %743 мм2.7 м/с14 %
    09:00Практически безоблачно+24°C75 %744 мм2.5 м/с18 %
    12:00Небольшая облачность+26°C62 %744 мм2.6 м/с35 %
    15:00Практически безоблачно+26°C57 %745 мм2.8 м/с14 %
    18:00Практически безоблачно+26°C56 %745 мм3.1 м/с14 %
    21:00Ясно и безоблачно+22°C70 %745 мм2.1 м/с7 %
  • 17июля
    Среда
    +16°
    +28°
    Ясно и безоблачно
    ВремяПогодаТемператураВлажностьДавлениеВетер, м/сВероятность осадков
    00:00Ясно и безоблачно+16°C86 %745 мм1.8 м/с2 %
    03:00Ясно и безоблачно+15°C92 %745 мм1.9 м/с2 %
    06:00Ясно и безоблачно+17°C88 %746 мм1.9 м/с2 %
    09:00Ясно и безоблачно+23°C69 %746 мм0.8 м/с2 %
    12:00Облачно с прояснениями+26°C55 %746 мм1.5 м/с14 %
    15:00Ясно и безоблачно+27°C47 %745 мм1.0 м/с12 %
    18:00Ясно и безоблачно+27°C46 %744 мм0.5 м/с16 %
    21:00Облачно с прояснениями+22°C67 %744 мм2.0 м/с9 %
Мы используем cookies
Соглашаюсь